Flight Track Log - Related Links

Times and Time Zones

All times are in EDT time to prevent confusion due to time zone crossing. See the RPA3161 flight status page for this flight to view local times or setup timezone preferences in your user account.

Time Position Orientation Groundspeed Altitude Reporting Facility
EDT Latitude Longitude Course Direction KTS MPH feet Rate Location/Type
Mon 12:21:00 PM 44.1912 -73.2533 195° South  Level FlightAware Approximate
Mon 12:21:25 PM 44.3425 -73.1600 195° South 238 274 6,200  Level Boston Center
Mon 12:22:00 PM 44.0988 -73.2880 195° South  Level FlightAware Approximate
Mon 12:22:25 PM 44.2839 -73.1825 195° South 267 307 8,900  Level Boston Center
Mon 12:23:00 PM 44.0060 -73.3203 194° South  Level FlightAware Approximate
Mon 12:23:25 PM 44.2108 -73.2133 197° South 267 307 10,800  Level Boston Center
Mon 12:24:00 PM 43.9130 -73.3514 195° South  Level FlightAware Approximate
Mon 12:24:25 PM 44.1294 -73.2469 197° South 289 333 12,900  Level Boston Center
Mon 12:25:00 PM 43.8207 -73.3861 195° South  Level FlightAware Approximate
Mon 12:25:25 PM 44.0519 -73.2778 196° South 315 362 15,200  Level Boston Center
Mon 12:26:00 PM 43.7283 -73.4207 195° South  Level FlightAware Approximate
Mon 12:26:25 PM 43.9642 -73.3142 197° South 331 381 17,100  Level Boston Center
Mon 12:27:25 PM 43.8722 -73.3531 197° South 341 392 18,900 1,800 Climbing Boston Center
Mon 12:28:25 PM 43.7803 -73.3889 196° South 341 392 20,700 1,600 Climbing Boston Center
Mon 12:29:25 PM 43.6842 -73.4306 197° South 352 405 22,100 1,550 Climbing Boston Center
Mon 12:30:25 PM 43.5858 -73.4692 196° South 357 411 23,800 1,550 Climbing Boston Center
Mon 12:31:25 PM 43.4833 -73.4903 188° South 368 423 25,200 1,400 Climbing Boston Center
Mon 12:32:25 PM 43.3772 -73.4969 183° South 378 435 26,600 1,400 Climbing Boston Center
Mon 12:33:25 PM 43.2667 -73.5036 183° South 388 447 28,000 1,300 Climbing Boston Center
Mon 12:34:25 PM 43.1539 -73.5072 181° South 398 458 29,200 1,150 Climbing Boston Center
Mon 12:35:25 PM 43.0289 -73.5136 182° South 412 474 30,300 1,100 Climbing Boston Center
Mon 12:36:25 PM 42.9100 -73.5172 181° South 417 480 31,400 1,250 Climbing Boston Center
Mon 12:37:25 PM 42.7975 -73.5239 182° South 422 486 32,800 1,350 Climbing Boston Center
Mon 12:38:25 PM 42.6828 -73.5303 182° South 422 486 34,100 1,050 Climbing Boston Center
Mon 12:39:25 PM 42.5681 -73.5367 182° South 422 486 34,900 800 Climbing Boston Center
Mon 12:40:25 PM 42.4514 -73.5403 181° South 422 486 35,700 550 Climbing Boston Center
Mon 12:41:25 PM 42.3367 -73.5439 181° South 422 486 36,000 150 Climbing Boston Center
Mon 12:42:25 PM 42.2367 -73.5394 178° South 415 478 36,000  Level Boston Center
Mon 12:43:25 PM 42.1242 -73.5458 182° South 415 478 36,000  Level Boston Center
Mon 12:44:25 PM 41.9947 -73.5575 184° South 420 483 36,000  Level Boston Center
Mon 12:45:25 PM 41.8947 -73.5611 182° South 420 483 36,000  Level Boston Center
Mon 12:47:05 PM 41.7350 -73.6342 199° South 362 417 36,000  Level New York Center
Mon 12:48:06 PM 41.6478 -73.7083 212° Southwest 367 422 36,000  Level New York Center
Mon 12:49:04 PM 41.5669 -73.7767 212° Southwest 373 429 36,000  Level New York Center
Mon 12:50:05 PM 41.4797 -73.8447 210° Southwest 368 423 36,000  Level New York Center
Mon 12:51:04 PM 41.3786 -73.8900 199° South 368 423 36,000  Level New York Center
Mon 12:52:04 PM 41.2900 -73.9300 199° South 381 438 36,000 -700 Level New York Center
Mon 12:53:04 PM 41.1719 -73.9850 199° South 381 438 34,600 -1,388 Descending New York Center
Mon 12:54:05 PM 41.0769 -74.0300 200° South 381 438 33,200 -1,600 Descending New York Center
Mon 12:55:04 PM 40.9958 -74.1086 216° Southwest 371 427 31,400 -1,815 Descending New York Center
Mon 12:56:04 PM 40.9264 -74.2042 226° Southwest 356 410 29,600 -1,884 Descending New York Center
Mon 12:57:05 PM 40.8569 -74.2992 226° Southwest 361 415 27,600 -1,770 Descending New York Center
Mon 12:58:06 PM 40.7892 -74.4000 228° Southwest 366 421 26,000 -807 Descending New York Center
Mon 12:59:04 PM 40.7256 -74.5061 232° Southwest 372 428 26,000  Level New York Center
Mon 01:00:04 PM 40.6639 -74.6094 232° Southwest 372 428 26,000 -49 Level New York Center
Mon 01:01:06 PM 40.6019 -74.7125 232° Southwest 367 422 25,900  Descending New York Center
Mon 01:02:04 PM 40.5342 -74.8125 228° Southwest 362 417 26,000 51 Climbing New York Center
Mon 01:03:04 PM 40.4661 -74.9067 226° Southwest 368 423 26,000  Level New York Center
Mon 01:04:05 PM 40.4003 -75.0033 228° Southwest 368 423 26,000 -295 Level New York Center
Mon 01:05:06 PM 40.3322 -75.0972 226° Southwest 368 423 25,400 -1,240 Descending New York Center
Mon 01:06:06 PM 40.2661 -75.1939 228° Southwest 368 423 23,500 -1,932 Descending New York Center
Mon 01:07:04 PM 40.1981 -75.2847 226° Southwest 363 418 21,600 -1,780 Descending New York Center
Mon 01:08:04 PM 40.1339 -75.3781 228° Southwest 358 412 20,000 -793 Descending New York Center
Mon 01:09:05 PM 40.0678 -75.4714 227° Southwest 358 412 20,000  Level New York Center
Mon 01:10:05 PM 40.0017 -75.5619 226° Southwest 358 412 20,000  Level New York Center
Mon 01:11:04 PM 39.9356 -75.6494 225° Southwest 358 412 20,000 -100 Level New York Center
Mon 01:12:05 PM 39.8858 -75.7381 234° Southwest 347 399 19,800 -787 Descending New York Center
Mon 01:13:06 PM 39.8297 -75.8367 233° Southwest 322 371 18,400 -1,300 Descending New York Center
Mon 01:14:05 PM 39.7861 -75.9256 237° Southwest 313 360 17,200 -1,261 Descending New York Center
Mon 01:15:05 PM 39.7669 -76.0319 257° West 307 353 15,900 -1,289 Descending New York Center
Mon 01:16:06 PM 39.7542 -76.1283 260° West 302 348 14,600 -1,339 Descending New York Center
Mon 01:17:06 PM 39.6981 -76.2158 230° Southwest 295 339 13,200 -1,258 Descending New York Center
Mon 01:18:10 PM 39.6167 -76.2833 213° Southwest 293 337 12,000 -581 Descending Potomac TRACON
Mon 01:19:10 PM 39.5500 -76.3333 210° Southwest 292 336 12,000  Level Potomac TRACON
Mon 01:20:16 PM 39.4833 -76.4000 218° Southwest 295 339 12,000  Level Potomac TRACON
Mon 01:21:10 PM 39.4167 -76.4500 210° Southwest 294 338 12,000 -632 Level Potomac TRACON
Mon 01:22:10 PM 39.3500 -76.5167 218° Southwest 293 337 10,800 -992 Descending Potomac TRACON
Mon 01:23:11 PM 39.2833 -76.5667 210° Southwest 285 328 10,000 -397 Descending Potomac TRACON
Mon 01:24:11 PM 39.2167 -76.6167 210° Southwest 286 329 10,000  Level Potomac TRACON
Mon 01:25:11 PM 39.1500 -76.6833 218° Southwest 287 330 10,000  Level Potomac TRACON
Mon 01:26:11 PM 39.1000 -76.7500 226° Southwest 286 329 10,000 -50 Level Potomac TRACON
Mon 01:27:11 PM 39.0333 -76.8167 218° Southwest 254 292 9,900 -450 Descending Potomac TRACON
Mon 01:28:11 PM 39.0000 -76.8667 229° Southwest 216 249 9,100 -1,000 Descending Potomac TRACON
Mon 01:29:11 PM 38.9667 -76.9333 237° Southwest 218 251 7,900 -1,263 Descending Potomac TRACON
Mon 01:30:05 PM 38.9833 -77.0167 284° West 216 249 6,700 -1,000 Descending Potomac TRACON
Mon 01:31:05 PM 39.0167 -77.0667 311° West 222 255 6,000 -750 Descending Potomac TRACON
Mon 01:32:05 PM 39.0500 -77.1167 311° West 201 231 5,200 -500 Descending Potomac TRACON
Mon 01:33:05 PM 39.0833 -77.1667 311° West 198 228 5,000 -474 Descending Potomac TRACON
Mon 01:33:59 PM 39.0833 -77.2167 270° West 152 175 4,300 -1,000 Descending Potomac TRACON
Mon 01:35:05 PM 39.0500 -77.2167 180° South 145 167 3,000 -650 Descending Potomac TRACON
Mon 01:35:59 PM 39.0000 -77.1833 153° Southeast 152 175 3,000 -53 Level Potomac TRACON
Mon 01:36:59 PM 38.9667 -77.1667 159° South 147 169 2,900 -368 Descending Potomac TRACON
Mon 01:37:53 PM 38.9500 -77.1333 123° Southeast 145 167 2,300 -667 Descending Potomac TRACON

Login

Don't have an account? Register now (free) for customized features, flight alerts, and more!